Time;durP1;ratioP1;P1;durP2;ratioP2;P2;SDS_P1;SDS_P2;PMS_P1;PMS_P2;Temp;Humidity;BMP_temperature;BMP_pressure;BME280_temperature;BME280_humidity;BME280_pressure;Samples;Min_cycle;Max_cycle;Signal;HPM_P1;HPM_P2
2022/03/18 00:01:23;;;;;;;13.70;5.60;;;8.60;90.50;;;;;;5024291;28;20480;-49
2022/03/18 00:03:51;;;;;;;14.77;5.47;;;8.60;90.50;;;;;;5021806;28;20877;-48
2022/03/18 00:06:18;;;;;;;13.43;5.30;;;8.60;90.50;;;;;;5022757;28;20965;-49
2022/03/18 00:08:46;;;;;;;11.87;4.20;;;8.60;90.50;;;;;;5029554;28;20602;-48
2022/03/18 00:11:14;;;;;;;18.73;6.00;;;8.60;90.50;;;;;;5019621;28;20562;-48
2022/03/18 00:13:42;;;;;;;11.83;5.60;;;8.60;90.40;;;;;;5031292;28;21181;-46
2022/03/18 00:16:09;;;;;;;13.13;5.73;;;;;;;;;;5020611;28;20473;-48
2022/03/18 00:18:36;;;;;;;12.50;6.30;;;8.50;90.50;;;;;;5019999;28;20650;-48
2022/03/18 00:21:02;;;;;;;11.43;5.67;;;8.50;90.50;;;;;;5023906;28;20493;-48
2022/03/18 00:23:29;;;;;;;11.17;4.53;;;8.50;90.50;;;;;;5024486;28;20586;-48
2022/03/18 00:25:56;;;;;;;14.30;5.90;;;8.50;90.40;;;;;;5021152;28;20485;-48
2022/03/18 00:28:22;;;;;;;16.57;6.50;;;8.50;90.40;;;;;;5024265;28;20595;-48
2022/03/18 00:30:51;;;;;;;14.10;5.20;;;8.50;90.40;;;;;;5021737;28;21081;-48
2022/03/18 00:33:18;;;;;;;16.90;5.90;;;8.50;90.40;;;;;;5024214;28;20744;-48
2022/03/18 00:35:44;;;;;;;17.33;6.17;;;8.40;90.40;;;;;;5024549;28;20474;-48
2022/03/18 00:38:11;;;;;;;12.83;5.47;;;8.40;90.50;;;;;;5018667;28;20489;-48
2022/03/18 00:40:38;;;;;;;15.77;5.93;;;8.40;90.40;;;;;;5020951;28;20998;-48
2022/03/18 00:43:05;;;;;;;16.67;5.97;;;8.40;90.40;;;;;;5027537;28;20842;-47
2022/03/18 00:45:31;;;;;;;26.00;5.87;;;8.40;90.30;;;;;;5023831;28;20477;-47
2022/03/18 00:53:28;;;;;;;15.23;4.80;;;8.30;90.30;;;;;;5014318;28;20487;-49
2022/03/18 00:55:55;;;;;;;11.43;6.07;;;8.20;90.40;;;;;;5023628;28;20478;-53
2022/03/18 00:58:22;;;;;;;8.53;4.57;;;8.30;90.40;;;;;;5023780;28;21041;-49
2022/03/18 01:00:49;;;;;;;10.13;4.77;;;8.30;90.50;;;;;;5025758;28;20476;-48
2022/03/18 01:03:17;;;;;;;20.90;7.47;;;8.30;90.40;;;;;;5022622;28;20493;-49
2022/03/18 01:05:44;;;;;;;13.40;4.53;;;;;;;;;;5021394;28;21175;-47
2022/03/18 01:08:10;;;;;;;12.43;5.33;;;8.20;90.50;;;;;;5024215;28;20943;-47
2022/03/18 01:10:37;;;;;;;14.03;4.73;;;8.10;90.40;;;;;;5021340;28;20490;-48
2022/03/18 01:13:04;;;;;;;8.33;4.47;;;8.10;90.50;;;;;;5022088;28;20481;-48
2022/03/18 01:15:31;;;;;;;14.37;5.17;;;8.20;90.60;;;;;;5024356;28;20482;-48
2022/03/18 01:17:58;;;;;;;22.07;4.80;;;8.10;90.50;;;;;;5023927;28;20486;-48
2022/03/18 01:20:27;;;;;;;11.90;4.23;;;8.10;90.50;;;;;;5023834;28;20480;-47
2022/03/18 01:22:53;;;;;;;18.13;5.20;;;8.10;90.60;;;;;;5004058;28;20518;-48
2022/03/18 01:25:20;;;;;;;16.03;5.03;;;8.10;90.70;;;;;;5021844;28;20504;-48
2022/03/18 01:27:47;;;;;;;31.23;5.27;;;8.10;90.70;;;;;;5016686;28;21016;-47
2022/03/18 01:30:14;;;;;;;18.00;4.77;;;8.10;90.60;;;;;;5021580;28;20500;-48
2022/03/18 01:32:41;;;;;;;12.30;4.77;;;8.10;90.60;;;;;;5023717;28;20573;-48
2022/03/18 01:35:09;;;;;;;12.63;4.87;;;8.00;90.60;;;;;;5023754;28;20485;-47
2022/03/18 01:37:37;;;;;;;5.07;3.77;;;8.10;90.70;;;;;;5023893;28;20488;-48
2022/03/18 01:40:05;;;;;;;21.00;5.43;;;8.10;90.70;;;;;;5021347;28;20482;-50
2022/03/18 01:42:32;;;;;;;10.57;4.57;;;8.10;90.80;;;;;;5022805;28;20476;-49
2022/03/18 01:44:58;;;;;;;18.07;5.13;;;8.10;90.80;;;;;;5022083;28;20485;-48
2022/03/18 01:47:25;;;;;;;11.97;3.70;;;8.10;90.80;;;;;;5023578;28;20483;-48
2022/03/18 01:49:53;;;;;;;8.20;4.40;;;8.10;90.80;;;;;;5019104;28;20488;-48
2022/03/18 01:52:20;;;;;;;9.83;4.33;;;8.10;90.90;;;;;;5022173;28;20493;-47
2022/03/18 01:54:48;;;;;;;12.87;4.20;;;8.10;90.70;;;;;;5023769;28;20486;-48
2022/03/18 01:57:17;;;;;;;20.37;5.70;;;;;;;;;;5024245;28;20486;-47
2022/03/18 01:59:44;;;;;;;10.93;4.80;;;8.10;90.60;;;;;;5020718;28;20594;-46
2022/03/18 02:02:11;;;;;;;19.33;4.63;;;8.10;90.70;;;;;;5021640;28;20500;-48
2022/03/18 02:04:38;;;;;;;13.23;4.37;;;8.10;90.70;;;;;;5023429;28;20496;-48
2022/03/18 02:07:05;;;;;;;9.93;4.60;;;8.10;90.70;;;;;;5024469;28;20543;-47
2022/03/18 02:09:33;;;;;;;7.60;4.17;;;8.10;90.70;;;;;;5023499;28;20989;-47
2022/03/18 02:12:02;;;;;;;11.13;4.43;;;8.10;90.70;;;;;;5022648;28;20474;-47
2022/03/18 02:14:37;;;;;;;14.13;5.10;;;8.10;90.70;;;;;;5006840;28;20530;-46
2022/03/18 02:17:06;;;;;;;16.30;5.87;;;8.00;90.70;;;;;;5013876;28;20481;-52
2022/03/18 02:19:33;;;;;;;11.53;5.27;;;8.00;90.80;;;;;;5017636;28;20481;-46
2022/03/18 02:22:01;;;;;;;17.97;6.50;;;8.00;90.80;;;;;;5025488;28;20481;-47
2022/03/18 02:24:29;;;;;;;13.13;5.27;;;;;;;;;;5019534;28;20565;-47
2022/03/18 02:26:56;;;;;;;9.40;4.30;;;8.00;90.90;;;;;;5022180;28;21159;-47
2022/03/18 02:29:24;;;;;;;17.53;5.77;;;8.00;90.80;;;;;;5011967;28;20535;-47
2022/03/18 02:31:51;;;;;;;10.53;4.80;;;8.00;91.00;;;;;;5033351;28;20607;-47
2022/03/18 02:34:18;;;;;;;16.93;4.40;;;7.90;90.90;;;;;;5017419;28;20488;-47
2022/03/18 02:36:45;;;;;;;16.50;5.40;;;7.90;90.90;;;;;;5021808;28;21145;-47
2022/03/18 02:39:12;;;;;;;13.37;5.53;;;7.90;90.90;;;;;;5013745;28;20944;-50
2022/03/18 02:41:41;;;;;;;11.30;4.33;;;7.90;91.00;;;;;;5031218;28;20481;-48
2022/03/18 02:44:07;;;;;;;19.43;4.23;;;7.80;91.00;;;;;;5017079;28;20494;-47
2022/03/18 02:46:34;;;;;;;18.27;4.47;;;7.80;91.00;;;;;;5037140;28;20516;-53
2022/03/18 02:49:01;;;;;;;8.57;5.07;;;7.80;91.00;;;;;;5022066;28;20487;-47
2022/03/18 02:51:28;;;;;;;16.37;5.43;;;7.80;91.10;;;;;;5020144;28;20486;-46
2022/03/18 02:53:55;;;;;;;22.93;7.07;;;7.80;91.10;;;;;;5016394;28;20532;-46
2022/03/18 02:56:22;;;;;;;14.63;5.07;;;7.80;91.10;;;;;;5023240;28;20843;-48
2022/03/18 02:58:51;;;;;;;11.33;4.03;;;7.80;91.10;;;;;;5015415;28;21921;-48
2022/03/18 03:01:18;;;;;;;11.73;5.13;;;7.80;91.20;;;;;;5022059;28;20485;-48
2022/03/18 03:03:45;;;;;;;9.40;4.47;;;7.80;91.20;;;;;;5021488;28;20483;-48
2022/03/18 03:08:56;;;;;;;8.23;4.20;;;7.70;91.20;;;;;;5018579;28;20860;-47
2022/03/18 03:11:23;;;;;;;17.87;5.07;;;7.60;91.30;;;;;;5021723;28;20484;-48
2022/03/18 03:13:51;;;;;;;15.17;5.40;;;7.70;91.30;;;;;;5015458;28;20579;-48
2022/03/18 03:16:19;;;;;;;11.10;5.10;;;7.70;91.30;;;;;;5018604;28;20487;-48
2022/03/18 03:18:46;;;;;;;23.17;5.40;;;7.60;91.30;;;;;;5017004;28;20490;-48
2022/03/18 03:21:13;;;;;;;17.20;5.10;;;7.70;91.40;;;;;;5026238;28;20513;-48
2022/03/18 03:23:39;;;;;;;9.77;4.93;;;7.60;91.40;;;;;;5018145;28;21001;-49
2022/03/18 03:26:07;;;;;;;19.73;4.70;;;;;;;;;;5019426;28;20513;-48
2022/03/18 03:28:33;;;;;;;17.40;7.20;;;7.60;91.40;;;;;;5020373;28;20485;-48
2022/03/18 03:31:02;;;;;;;18.63;5.20;;;7.60;91.40;;;;;;5019879;28;20503;-48
2022/03/18 03:33:29;;;;;;;12.13;4.30;;;7.60;91.40;;;;;;5017327;28;20494;-48
2022/03/18 03:35:56;;;;;;;13.13;4.90;;;7.60;91.40;;;;;;5019880;28;20534;-48
2022/03/18 03:38:23;;;;;;;8.97;4.20;;;7.60;91.40;;;;;;5022328;28;20477;-49
2022/03/18 03:40:50;;;;;;;23.27;5.53;;;7.60;91.40;;;;;;5022041;28;20480;-48
2022/03/18 03:43:17;;;;;;;11.77;5.70;;;7.60;91.40;;;;;;5021862;28;20494;-48
2022/03/18 03:45:44;;;;;;;12.10;4.03;;;7.60;91.40;;;;;;5021141;28;20498;-48
2022/03/18 03:48:12;;;;;;;15.53;5.70;;;7.60;91.40;;;;;;5023234;28;21071;-49
2022/03/18 03:50:40;;;;;;;13.03;4.37;;;7.50;91.40;;;;;;5020844;28;20488;-48
2022/03/18 03:53:07;;;;;;;17.03;6.40;;;7.50;91.40;;;;;;5012310;28;20890;-48
2022/03/18 03:55:38;;;;;;;8.83;5.10;;;7.50;91.40;;;;;;5016868;28;20518;-47
2022/03/18 03:58:06;;;;;;;18.33;6.50;;;7.50;91.50;;;;;;5017621;28;20486;-47
2022/03/18 04:00:33;;;;;;;15.37;6.30;;;7.40;91.40;;;;;;5013364;28;20977;-48
2022/03/18 04:03:00;;;;;;;18.50;4.53;;;7.50;91.40;;;;;;5018105;28;20494;-48
2022/03/18 04:05:28;;;;;;;10.83;4.87;;;7.50;91.50;;;;;;5009244;28;20493;-48
2022/03/18 04:07:55;;;;;;;35.30;6.80;;;7.50;91.50;;;;;;5030333;28;20474;-48
2022/03/18 04:10:21;;;;;;;11.37;5.00;;;7.50;91.50;;;;;;5015961;28;20485;-48
2022/03/18 04:12:48;;;;;;;12.40;4.40;;;7.50;91.40;;;;;;5005476;28;20477;-48
2022/03/18 04:15:15;;;;;;;11.73;5.47;;;7.50;91.40;;;;;;5019173;28;20475;-48
2022/03/18 04:17:44;;;;;;;18.23;5.27;;;7.50;91.40;;;;;;5008800;28;20487;-48
2022/03/18 04:20:13;;;;;;;17.13;4.97;;;7.40;91.30;;;;;;5015295;28;20511;-48
2022/03/18 04:22:42;;;;;;;28.53;5.33;;;;;;;;;;5018359;28;20485;-48
2022/03/18 04:25:10;;;;;;;30.17;6.87;;;7.50;91.40;;;;;;5012766;28;20481;-48
2022/03/18 04:27:37;;;;;;;15.03;4.33;;;7.50;91.30;;;;;;5018637;28;20504;-47
2022/03/18 04:30:06;;;;;;;18.43;4.93;;;7.50;91.40;;;;;;5016704;28;20492;-48
2022/03/18 04:32:33;;;;;;;10.30;4.67;;;7.50;91.30;;;;;;5021041;28;20482;-48
2022/03/18 04:35:00;;;;;;;10.60;5.50;;;7.50;91.30;;;;;;5017015;28;20470;-49
2022/03/18 04:37:27;;;;;;;16.90;4.60;;;7.50;91.30;;;;;;5014812;28;20473;-48
2022/03/18 04:39:56;;;;;;;22.67;4.47;;;7.50;91.40;;;;;;5012549;28;20560;-48
2022/03/18 04:42:23;;;;;;;15.50;5.00;;;7.50;91.40;;;;;;5028967;28;20495;-48
2022/03/18 04:44:49;;;;;;;15.93;5.33;;;7.50;91.40;;;;;;5019064;28;20481;-48
2022/03/18 04:47:16;;;;;;;7.97;4.47;;;7.50;91.30;;;;;;5020503;28;20494;-49
2022/03/18 04:49:43;;;;;;;16.53;5.73;;;;;;;;;;5017889;28;20500;-48
2022/03/18 04:52:10;;;;;;;14.63;5.30;;;7.50;91.30;;;;;;5019643;28;20489;-48
2022/03/18 04:54:37;;;;;;;14.60;5.07;;;7.50;91.30;;;;;;5021080;28;20546;-48
2022/03/18 04:57:18;;;;;;;21.50;4.93;;;7.50;91.40;;;;;;5019059;28;20492;-49
2022/03/18 04:59:46;;;;;;;11.10;5.50;;;7.40;91.30;;;;;;5018985;28;20587;-47
2022/03/18 05:02:14;;;;;;;16.87;5.83;;;7.50;91.40;;;;;;5022172;28;20484;-48
2022/03/18 05:04:41;;;;;;;25.53;5.60;;;7.40;91.40;;;;;;5019421;28;20571;-49
2022/03/18 05:07:09;;;;;;;19.07;4.80;;;7.40;91.40;;;;;;5019111;28;20573;-49
2022/03/18 05:09:35;;;;;;;20.40;5.43;;;7.40;91.40;;;;;;5018822;28;20489;-49
2022/03/18 05:12:02;;;;;;;18.67;5.47;;;7.40;91.40;;;;;;5017543;28;20491;-48
2022/03/18 05:14:32;;;;;;;10.80;4.90;;;7.40;91.40;;;;;;5017445;28;20487;-48
2022/03/18 05:16:58;;;;;;;13.73;4.13;;;7.40;91.40;;;;;;5003969;28;20484;-49
2022/03/18 05:19:25;;;;;;;16.90;4.57;;;7.40;91.40;;;;;;5018561;28;20475;-48
2022/03/18 05:21:52;;;;;;;9.27;4.67;;;7.40;91.50;;;;;;5018665;28;20494;-47
2022/03/18 05:24:19;;;;;;;16.73;4.10;;;7.30;91.30;;;;;;5018942;28;20498;-48
2022/03/18 05:26:45;;;;;;;22.80;4.67;;;7.30;91.40;;;;;;5014277;28;20488;-47
2022/03/18 05:29:13;;;;;;;12.67;4.07;;;7.30;91.50;;;;;;5013857;28;21935;-48
2022/03/18 05:31:43;;;;;;;16.80;4.97;;;;;;;;;;5020134;28;20472;-47
2022/03/18 05:34:09;;;;;;;19.50;5.70;;;7.30;91.40;;;;;;5015681;28;20538;-48
2022/03/18 05:36:36;;;;;;;14.73;4.80;;;7.30;91.40;;;;;;5025039;28;20490;-46
2022/03/18 05:39:03;;;;;;;7.43;3.73;;;7.30;91.50;;;;;;5016105;28;20497;-48
2022/03/18 05:41:31;;;;;;;13.83;4.23;;;7.30;91.40;;;;;;5023496;28;20574;-47
2022/03/18 05:43:58;;;;;;;12.40;4.97;;;;;;;;;;5014884;28;20595;-46
2022/03/18 05:46:24;;;;;;;12.43;4.20;;;7.30;91.50;;;;;;5014643;28;20817;-46
2022/03/18 05:48:53;;;;;;;17.43;5.27;;;7.30;91.50;;;;;;5005441;28;21412;-47
2022/03/18 05:51:20;;;;;;;8.20;3.80;;;7.40;91.50;;;;;;5012027;28;20494;-48
2022/03/18 05:53:47;;;;;;;20.57;4.93;;;7.30;91.40;;;;;;5024732;28;20492;-47
2022/03/18 05:58:59;;;;;;;10.30;4.07;;;7.30;91.50;;;;;;5018713;28;20497;-47
2022/03/18 06:01:26;;;;;;;14.00;4.63;;;7.30;91.50;;;;;;5012541;28;20537;-47
2022/03/18 06:03:54;;;;;;;33.23;6.17;;;7.30;91.50;;;;;;5021997;28;21017;-47
2022/03/18 06:06:21;;;;;;;22.20;6.30;;;7.30;91.50;;;;;;5020023;28;20484;-47
2022/03/18 06:11:51;;;;;;;10.43;5.87;;;7.30;91.50;;;;;;5019102;28;20478;-47
2022/03/18 06:14:19;;;;;;;14.13;6.70;;;7.30;91.50;;;;;;5012799;28;20472;-49
2022/03/18 06:16:48;;;;;;;22.43;5.00;;;7.40;91.50;;;;;;5014013;28;20479;-48
2022/03/18 06:19:17;;;;;;;16.30;5.10;;;7.40;91.50;;;;;;5028642;28;20574;-48
2022/03/18 06:21:44;;;;;;;11.53;4.40;;;;;;;;;;5021186;28;20986;-49
2022/03/18 06:24:12;;;;;;;19.43;5.07;;;7.50;91.60;;;;;;5022087;28;20492;-48
2022/03/18 06:26:39;;;;;;;15.70;4.47;;;7.60;91.70;;;;;;5020505;28;20483;-48
2022/03/18 06:29:07;;;;;;;21.30;5.33;;;7.60;91.70;;;;;;5021070;28;20503;-48
2022/03/18 06:31:35;;;;;;;14.73;4.63;;;7.60;91.60;;;;;;5022757;28;20492;-48
2022/03/18 06:34:02;;;;;;;20.53;5.07;;;7.70;91.50;;;;;;5019201;28;20479;-48
2022/03/18 06:36:31;;;;;;;13.20;4.87;;;;;;;;;;5023789;28;20494;-49
2022/03/18 06:38:59;;;;;;;7.73;4.30;;;;;;;;;;5023392;28;20515;-48
2022/03/18 06:41:26;;;;;;;17.57;5.97;;;7.80;91.70;;;;;;5022425;28;20514;-48
2022/03/18 06:43:53;;;;;;;9.70;5.17;;;7.80;91.60;;;;;;5021691;28;20542;-48
2022/03/18 06:46:20;;;;;;;16.73;4.97;;;7.90;91.60;;;;;;5019261;28;20982;-49
2022/03/18 06:48:47;;;;;;;11.00;4.80;;;7.90;91.50;;;;;;5019743;28;20486;-48
2022/03/18 06:51:14;;;;;;;22.43;5.80;;;7.90;91.40;;;;;;5021740;28;20495;-49
2022/03/18 06:53:42;;;;;;;14.23;5.13;;;7.90;91.30;;;;;;5022044;28;20480;-47
2022/03/18 06:56:09;;;;;;;15.50;5.43;;;8.00;91.50;;;;;;5019707;28;20506;-48
2022/03/18 06:58:36;;;;;;;14.67;4.73;;;8.00;91.40;;;;;;5021567;28;22568;-47
2022/03/18 07:01:03;;;;;;;14.97;4.73;;;8.00;91.50;;;;;;5019891;28;21015;-48
2022/03/18 07:03:30;;;;;;;17.20;5.90;;;8.00;91.40;;;;;;5020034;28;20900;-48
2022/03/18 07:05:57;;;;;;;15.50;5.30;;;8.10;91.40;;;;;;5020918;28;20490;-48
2022/03/18 07:08:24;;;;;;;20.13;6.13;;;8.10;91.50;;;;;;5022207;28;20507;-49
2022/03/18 07:10:52;;;;;;;17.87;4.60;;;8.20;91.50;;;;;;5017332;28;20978;-48
2022/03/18 07:13:19;;;;;;;10.70;4.50;;;8.20;91.60;;;;;;5018260;28;20596;-49
2022/03/18 07:15:46;;;;;;;14.27;5.10;;;;;;;;;;5022351;28;20964;-48
2022/03/18 07:18:12;;;;;;;8.77;4.73;;;8.40;91.40;;;;;;5022286;28;20487;-47
2022/03/18 07:20:40;;;;;;;15.20;5.40;;;8.40;91.20;;;;;;5023150;28;20481;-48
2022/03/18 07:23:09;;;;;;;11.07;5.67;;;8.50;91.40;;;;;;5023628;28;20249;-47
2022/03/18 07:25:37;;;;;;;19.30;5.60;;;8.50;91.20;;;;;;5022931;28;20547;-47
2022/03/18 07:28:08;;;;;;;10.13;5.40;;;8.60;91.30;;;;;;5021243;28;20496;-49
2022/03/18 07:30:35;;;;;;;12.83;5.73;;;8.60;91.40;;;;;;5020885;28;20488;-48
2022/03/18 07:33:03;;;;;;;10.50;5.90;;;8.70;91.30;;;;;;5021240;28;20499;-49
2022/03/18 07:35:30;;;;;;;16.33;6.50;;;8.80;91.40;;;;;;5019390;28;20492;-49
2022/03/18 07:37:57;;;;;;;22.07;6.47;;;8.90;91.30;;;;;;5020792;28;20963;-49
2022/03/18 07:40:25;;;;;;;16.23;4.93;;;8.90;90.90;;;;;;5015914;28;20481;-49
2022/03/18 07:42:53;;;;;;;16.60;6.37;;;8.80;91.00;;;;;;5019996;28;20477;-48
2022/03/18 07:45:23;;;;;;;15.83;5.30;;;;;;;;;;5020733;28;20480;-48
2022/03/18 07:47:50;;;;;;;9.60;4.30;;;8.80;91.20;;;;;;5009513;28;20589;-48
2022/03/18 07:50:21;;;;;;;5.77;2.60;;;8.70;90.80;;;;;;5019696;28;20565;-48
2022/03/18 07:52:49;;;;;;;22.77;5.33;;;8.70;91.10;;;;;;5020467;28;20496;-48
2022/03/18 07:55:17;;;;;;;13.73;3.00;;;8.70;91.00;;;;;;5020770;28;20609;-48
2022/03/18 07:57:44;;;;;;;23.83;4.90;;;8.70;91.10;;;;;;5019146;28;20887;-49
2022/03/18 08:00:13;;;;;;;19.50;4.20;;;8.70;91.10;;;;;;5020998;28;20484;-48
2022/03/18 08:02:41;;;;;;;18.03;5.80;;;8.80;91.20;;;;;;5015046;28;20495;-48
2022/03/18 08:05:09;;;;;;;12.77;5.70;;;8.80;91.30;;;;;;5028133;28;20501;-48
2022/03/18 08:07:36;;;;;;;12.93;4.90;;;8.80;91.00;;;;;;5021795;28;20583;-49
2022/03/18 08:10:04;;;;;;;26.77;7.20;;;8.80;90.90;;;;;;5014763;28;20485;-47
2022/03/18 08:12:32;;;;;;;15.43;5.43;;;8.90;91.20;;;;;;5019885;28;20483;-49
2022/03/18 08:14:59;;;;;;;15.50;4.37;;;8.90;91.20;;;;;;5019267;28;20504;-47
2022/03/18 08:17:27;;;;;;;10.50;3.50;;;8.90;90.80;;;;;;5011498;28;20619;-49
2022/03/18 08:19:56;;;;;;;15.40;6.67;;;8.90;91.00;;;;;;5018581;28;20484;-47
2022/03/18 08:22:23;;;;;;;17.60;6.33;;;9.00;91.40;;;;;;5004351;28;20474;-48
2022/03/18 08:24:51;;;;;;;11.80;4.97;;;9.10;91.00;;;;;;5011412;28;20477;-47
2022/03/18 08:27:18;;;;;;;13.77;5.30;;;9.10;90.80;;;;;;5020377;28;20557;-48
2022/03/18 08:29:45;;;;;;;17.23;4.40;;;9.10;90.90;;;;;;5018317;28;20494;-48
2022/03/18 08:32:14;;;;;;;15.13;6.60;;;9.20;91.20;;;;;;4986438;28;22015;-48
2022/03/18 08:34:41;;;;;;;21.43;6.93;;;9.30;91.20;;;;;;5021659;28;20478;-48
2022/03/18 08:37:10;;;;;;;14.23;5.50;;;9.40;91.20;;;;;;5014075;28;20494;-48
2022/03/18 08:39:37;;;;;;;18.67;4.60;;;9.40;90.80;;;;;;5022519;28;20496;-50
2022/03/18 08:42:04;;;;;;;22.80;6.97;;;9.50;90.80;;;;;;4998849;28;20494;-48
2022/03/18 08:44:31;;;;;;;9.73;4.00;;;9.60;90.60;;;;;;5012830;28;20465;-47
2022/03/18 08:46:58;;;;;;;15.23;5.20;;;9.60;90.70;;;;;;5024176;28;20532;-46
2022/03/18 08:49:24;;;;;;;13.90;4.20;;;9.60;90.60;;;;;;5024488;28;20478;-48
2022/03/18 08:51:51;;;;;;;8.20;5.00;;;;;;;;;;5019328;28;20484;-47
2022/03/18 08:54:21;;;;;;;25.87;8.47;;;9.90;90.80;;;;;;5019200;28;20488;-48
2022/03/18 08:56:48;;;;;;;14.73;5.43;;;9.90;90.20;;;;;;5016178;28;20543;-48
2022/03/18 08:59:15;;;;;;;17.67;4.97;;;9.90;90.50;;;;;;5025779;28;20490;-49
2022/03/18 09:01:42;;;;;;;10.33;4.60;;;9.90;90.40;;;;;;5025990;28;20917;-55
2022/03/18 09:04:09;;;;;;;17.17;5.17;;;9.90;90.30;;;;;;5007618;28;20477;-47
2022/03/18 09:06:36;;;;;;;15.43;6.17;;;9.90;90.30;;;;;;5023770;28;21073;-48
2022/03/18 09:09:03;;;;;;;11.90;6.10;;;9.90;90.20;;;;;;5024508;28;20482;-48
2022/03/18 09:11:31;;;;;;;28.27;9.07;;;10.00;90.20;;;;;;5027396;28;20481;-48
2022/03/18 09:13:58;;;;;;;11.00;6.20;;;10.00;90.00;;;;;;5020207;28;20482;-46
2022/03/18 09:16:24;;;;;;;21.80;7.10;;;10.10;90.00;;;;;;5029945;28;20856;-46
2022/03/18 09:18:51;;;;;;;19.43;8.17;;;10.20;89.60;;;;;;5030179;28;20497;-47
2022/03/18 09:21:18;;;;;;;10.70;6.70;;;10.20;90.00;;;;;;5030138;28;20489;-47
2022/03/18 09:23:44;;;;;;;12.10;6.90;;;10.20;89.80;;;;;;5024991;28;20485;-47
2022/03/18 09:26:11;;;;;;;14.23;4.70;;;10.20;89.60;;;;;;5026190;28;20489;-47
2022/03/18 09:28:40;;;;;;;14.97;7.23;;;10.20;90.00;;;;;;5033997;28;20517;-46
2022/03/18 09:31:06;;;;;;;13.07;8.93;;;10.20;90.00;;;;;;5029708;28;20474;-46
2022/03/18 09:33:34;;;;;;;14.73;4.17;;;10.40;89.80;;;;;;5024125;28;20493;-46
2022/03/18 09:36:01;;;;;;;11.43;6.53;;;10.50;89.60;;;;;;5028200;28;20490;-47
2022/03/18 09:38:28;;;;;;;7.80;4.97;;;10.60;89.50;;;;;;5029097;28;20484;-47
2022/03/18 09:40:55;;;;;;;21.23;6.40;;;10.60;89.20;;;;;;5025131;28;20482;-47
2022/03/18 09:43:22;;;;;;;8.53;6.93;;;10.60;89.20;;;;;;5026913;28;20486;-45
2022/03/18 09:45:51;;;;;;;28.17;10.27;;;10.60;89.60;;;;;;5026692;28;20483;-46
2022/03/18 09:48:18;;;;;;;21.90;9.80;;;10.70;90.00;;;;;;5029926;28;20987;-46
2022/03/18 09:50:45;;;;;;;18.10;9.33;;;10.80;89.50;;;;;;5028772;28;20485;-46
2022/03/18 09:53:12;;;;;;;16.53;7.90;;;10.80;89.60;;;;;;5027832;28;20777;-46
2022/03/18 09:55:39;;;;;;;20.43;7.57;;;11.00;90.20;;;;;;5022071;28;20489;-46
2022/03/18 09:58:05;;;;;;;15.67;7.10;;;11.10;90.30;;;;;;5025092;28;20489;-46
2022/03/18 10:00:32;;;;;;;18.87;9.10;;;11.20;90.20;;;;;;5029680;28;20934;-46
2022/03/18 10:03:12;;;;;;;24.17;10.13;;;11.40;90.00;;;;;;5028000;28;20992;-47
2022/03/18 10:05:49;;;;;;;13.70;8.13;;;11.40;88.90;;;;;;5024457;28;20482;-47
2022/03/18 10:08:17;;;;;;;23.73;10.10;;;11.40;88.50;;;;;;5029916;28;20619;-47
2022/03/18 10:10:46;;;;;;;17.13;8.83;;;11.50;88.70;;;;;;5016159;28;20487;-47
2022/03/18 10:13:15;;;;;;;10.33;7.30;;;;;;;;;;5024617;28;20585;-46
2022/03/18 10:15:42;;;;;;;17.97;8.50;;;11.50;88.70;;;;;;5025876;28;21037;-46
2022/03/18 10:18:13;;;;;;;18.37;9.83;;;11.50;88.60;;;;;;5023992;28;20484;-46
2022/03/18 10:20:41;;;;;;;21.43;9.27;;;11.70;90.00;;;;;;5025574;28;20467;-46
2022/03/18 10:23:21;;;;;;;12.47;7.03;;;11.80;88.10;;;;;;5026064;28;20481;-46
2022/03/18 10:25:50;;;;;;;21.20;11.47;;;;;;;;;;5023731;28;20476;-48
2022/03/18 10:28:18;;;;;;;17.50;9.33;;;11.90;88.80;;;;;;5014852;28;20768;-47
2022/03/18 10:30:45;;;;;;;19.43;10.83;;;12.00;88.70;;;;;;5027784;28;20470;-47
2022/03/18 10:33:13;;;;;;;23.43;10.30;;;12.10;87.50;;;;;;5025336;28;20758;-47
2022/03/18 10:38:33;;;;;;;23.10;11.70;;;12.10;87.60;;;;;;5020888;28;20525;-47
2022/03/18 10:41:05;;;;;;;15.47;8.83;;;12.10;88.00;;;;;;5034425;28;20485;-46
2022/03/18 10:43:50;;;;;;;16.70;7.97;;;12.10;87.60;;;;;;5025418;28;20480;-46
2022/03/18 10:46:17;;;;;;;14.93;7.90;;;12.10;87.80;;;;;;5020183;28;20560;-47
2022/03/18 10:49:02;;;;;;;11.93;7.57;;;12.10;88.20;;;;;;5025546;28;20479;-47
2022/03/18 10:51:29;;;;;;;24.20;10.30;;;12.30;89.60;;;;;;5019907;28;21003;-46
2022/03/18 10:53:57;;;;;;;13.63;8.80;;;12.40;88.30;;;;;;5021606;28;20487;-47
2022/03/18 10:56:24;;;;;;;20.73;10.13;;;12.80;89.80;;;;;;5028561;28;20485;-46
2022/03/18 10:58:50;;;;;;;14.40;8.53;;;12.90;87.60;;;;;;5016690;28;21327;-46
2022/03/18 11:01:19;;;;;;;14.80;7.80;;;13.10;87.40;;;;;;5027084;28;21011;-45
2022/03/18 11:03:46;;;;;;;27.10;13.63;;;13.30;88.00;;;;;;5021038;28;20593;-46
2022/03/18 11:06:17;;;;;;;24.33;12.07;;;13.50;87.40;;;;;;5027938;28;20492;-46
2022/03/18 11:08:46;;;;;;;24.03;11.73;;;13.70;87.80;;;;;;5023960;28;20491;-52
2022/03/18 11:11:18;;;;;;;25.30;11.70;;;13.80;87.10;;;;;;5025620;28;20485;-46
2022/03/18 11:13:50;;;;;;;27.23;12.40;;;13.90;85.10;;;;;;5023144;28;20470;-46
2022/03/18 11:16:19;;;;;;;23.27;11.97;;;14.10;86.20;;;;;;5027547;28;20480;-46
2022/03/18 11:18:48;;;;;;;18.20;9.73;;;14.20;86.30;;;;;;5024135;28;20483;-46
2022/03/18 11:21:18;;;;;;;14.63;10.13;;;14.30;86.00;;;;;;5023540;28;20477;-47
2022/03/18 11:23:46;;;;;;;31.93;13.13;;;14.40;87.70;;;;;;5013427;28;20482;-46
2022/03/18 11:26:15;;;;;;;18.67;10.30;;;14.50;86.10;;;;;;5026620;28;20564;-46
2022/03/18 11:28:42;;;;;;;23.53;10.17;;;14.50;84.50;;;;;;5026774;28;20486;-48
2022/03/18 11:31:11;;;;;;;28.07;12.37;;;14.50;84.30;;;;;;5023169;28;20480;-47
2022/03/18 11:33:39;;;;;;;25.83;12.33;;;14.70;85.90;;;;;;5021690;28;20491;-47
2022/03/18 11:36:11;;;;;;;21.93;11.07;;;14.60;84.50;;;;;;5025129;28;20517;-47
2022/03/18 11:38:56;;;;;;;24.73;11.40;;;14.70;84.00;;;;;;5014640;28;20486;-47
2022/03/18 11:41:25;;;;;;;23.80;11.90;;;;;;;;;;5015684;28;20558;-48
2022/03/18 11:43:52;;;;;;;24.13;12.23;;;14.80;84.80;;;;;;5018710;28;20470;-48
2022/03/18 11:46:22;;;;;;;30.13;12.83;;;14.80;84.00;;;;;;5022694;28;20851;-47
2022/03/18 11:48:50;;;;;;;24.67;10.70;;;14.80;83.00;;;;;;5023276;28;20493;-47
2022/03/18 11:51:25;;;;;;;22.73;11.50;;;14.90;83.10;;;;;;5029479;28;20879;-47
2022/03/18 11:53:54;;;;;;;16.90;8.23;;;15.00;83.00;;;;;;5003478;28;20899;-49
2022/03/18 11:56:24;;;;;;;23.83;11.40;;;15.10;85.00;;;;;;5022963;28;20980;-47
2022/03/18 11:58:51;;;;;;;19.40;10.77;;;15.10;83.50;;;;;;4998604;28;20485;-46
2022/03/18 12:01:40;;;;;;;18.87;10.10;;;15.00;82.80;;;;;;5023572;28;20819;-47
2022/03/18 12:04:08;;;;;;;24.30;11.90;;;15.00;83.40;;;;;;5014406;28;20594;-47
2022/03/18 12:07:14;;;;;;;27.50;12.43;;;15.10;83.10;;;;;;5027217;28;21278;-47
2022/03/18 12:09:58;;;;;;;19.60;11.00;;;15.20;82.90;;;;;;5023633;28;20471;-47
2022/03/18 12:12:31;;;;;;;19.83;10.83;;;15.20;81.10;;;;;;5017118;28;20474;-47
2022/03/18 12:15:02;;;;;;;23.17;11.67;;;15.10;82.50;;;;;;5019489;28;20669;-48
2022/03/18 12:17:29;;;;;;;25.93;11.47;;;15.00;82.20;;;;;;5025413;28;20494;-47
2022/03/18 12:20:00;;;;;;;43.60;13.17;;;15.00;82.30;;;;;;5018318;28;20483;-47
2022/03/18 12:22:28;;;;;;;20.83;10.63;;;15.10;82.90;;;;;;5022476;28;20913;-48
2022/03/18 12:24:57;;;;;;;27.77;13.53;;;15.20;83.40;;;;;;5020622;28;21043;-48
2022/03/18 12:27:33;;;;;;;17.40;10.83;;;15.20;82.70;;;;;;5013011;28;21016;-48
2022/03/18 12:30:01;;;;;;;29.70;12.77;;;15.10;81.10;;;;;;5023695;28;20656;-47
2022/03/18 12:32:29;;;;;;;12.97;7.10;;;15.00;81.80;;;;;;5026200;28;20485;-46
2022/03/18 12:34:57;;;;;;;20.43;10.83;;;15.00;81.80;;;;;;5021725;28;20485;-47
2022/03/18 12:37:30;;;;;;;26.07;12.77;;;15.00;82.80;;;;;;5024274;28;20486;-53
2022/03/18 12:40:06;;;;;;;12.97;6.97;;;15.10;81.60;;;;;;5014182;28;20487;-48
2022/03/18 12:42:48;;;;;;;24.70;11.70;;;15.20;82.60;;;;;;5033760;28;20502;-47
2022/03/18 12:45:25;;;;;;;18.20;8.80;;;15.30;83.00;;;;;;5016461;28;20496;-47
2022/03/18 12:47:53;;;;;;;27.60;12.80;;;15.30;81.20;;;;;;5015144;28;20570;-48
2022/03/18 12:50:21;;;;;;;20.03;8.80;;;15.20;80.90;;;;;;5003744;28;21114;-47
2022/03/18 12:52:48;;;;;;;24.70;11.83;;;15.30;80.90;;;;;;5028759;28;20485;-47
2022/03/18 12:55:17;;;;;;;18.37;11.80;;;15.40;82.70;;;;;;5021759;28;20487;-48
2022/03/18 12:57:45;;;;;;;15.10;10.20;;;15.40;81.40;;;;;;5023461;28;20477;-48
2022/03/18 13:00:13;;;;;;;19.60;10.83;;;15.50;83.00;;;;;;5024212;28;20487;-48
2022/03/18 13:02:42;;;;;;;17.43;10.13;;;15.50;81.40;;;;;;5024624;28;20916;-48
2022/03/18 13:05:10;;;;;;;9.93;6.20;;;15.50;80.70;;;;;;5021788;28;20490;-48
2022/03/18 13:07:37;;;;;;;35.77;12.50;;;15.50;80.70;;;;;;5024182;28;21001;-47
2022/03/18 13:10:05;;;;;;;23.40;11.20;;;15.50;81.90;;;;;;5023163;28;20926;-48